createdAt,value
2018-08-19T00:00:47.519Z,60.60
2018-08-19T00:03:15.120Z,60.70
2018-08-19T00:05:42.776Z,60.90
2018-08-19T00:08:10.367Z,60.80
2018-08-19T00:10:50.944Z,60.70
2018-08-19T00:13:18.584Z,60.90
2018-08-19T00:15:46.166Z,61.10
2018-08-19T00:18:13.719Z,60.80
2018-08-19T00:20:41.312Z,60.90
2018-08-19T00:23:09.227Z,60.80
2018-08-19T00:25:39.535Z,60.80
2018-08-19T00:28:08.518Z,60.80
2018-08-19T00:30:36.106Z,60.90
2018-08-19T00:33:03.955Z,60.80
2018-08-19T00:35:31.808Z,60.90
2018-08-19T00:37:59.782Z,61.00
2018-08-19T00:40:27.525Z,61.10
2018-08-19T00:42:55.067Z,60.90
2018-08-19T00:45:22.673Z,60.90
2018-08-19T00:47:50.259Z,61.10
2018-08-19T00:50:20.946Z,61.20
2018-08-19T00:52:48.681Z,61.40
2018-08-19T00:55:16.256Z,61.70
2018-08-19T00:57:46.968Z,62.00
2018-08-19T01:00:14.548Z,61.90
2018-08-19T01:02:42.071Z,62.30
2018-08-19T01:05:09.573Z,62.30
2018-08-19T01:07:37.149Z,62.30
2018-08-19T01:10:04.729Z,62.30
2018-08-19T01:12:32.241Z,62.60
2018-08-19T01:14:59.778Z,62.80
2018-08-19T01:17:31.851Z,63.10
2018-08-19T01:20:06.763Z,63.30
2018-08-19T01:22:35.887Z,63.40
2018-08-19T01:25:04.361Z,63.30
2018-08-19T01:27:33.978Z,63.50
2018-08-19T01:30:01.565Z,63.70
2018-08-19T01:32:29.099Z,63.80
2018-08-19T01:34:56.581Z,64.00
2018-08-19T01:37:24.135Z,64.10
2018-08-19T01:39:51.665Z,64.00
2018-08-19T01:42:19.200Z,64.10
2018-08-19T01:44:46.741Z,64.00
2018-08-19T01:47:14.243Z,64.10
2018-08-19T01:49:41.762Z,64.30
2018-08-19T01:52:09.308Z,64.30
2018-08-19T01:54:36.812Z,64.60
2018-08-19T01:57:04.419Z,64.80
2018-08-19T01:59:33.346Z,64.70
2018-08-19T02:02:02.830Z,64.80
2018-08-19T02:04:31.439Z,64.70
2018-08-19T02:06:59.181Z,64.70
2018-08-19T02:09:26.753Z,64.70
2018-08-19T02:11:57.429Z,64.80
2018-08-19T02:14:25.436Z,65.10
2018-08-19T02:16:53.834Z,65.20
2018-08-19T02:19:21.378Z,65.40
2018-08-19T02:21:49.774Z,65.40
2018-08-19T02:24:17.737Z,65.50
2018-08-19T02:26:45.320Z,65.70
2018-08-19T02:29:29.977Z,65.40
2018-08-19T02:31:59.846Z,65.50
2018-08-19T02:34:31.476Z,65.40
2018-08-19T02:37:04.854Z,65.50
2018-08-19T02:39:33.900Z,65.70
2018-08-19T02:42:01.467Z,65.70
2018-08-19T02:44:29.018Z,65.70
2018-08-19T02:46:56.666Z,65.90
2018-08-19T02:49:24.192Z,66.00
2018-08-19T02:51:51.694Z,66.00
2018-08-19T02:54:19.269Z,66.00
2018-08-19T02:56:46.833Z,66.20
2018-08-19T02:59:14.356Z,66.30
2018-08-19T03:01:41.915Z,66.40
2018-08-19T03:04:09.448Z,66.60
2018-08-19T03:06:36.950Z,66.70
2018-08-19T03:09:06.865Z,66.90
2018-08-19T03:11:34.517Z,67.00
2018-08-19T03:14:02.099Z,67.20
2018-08-19T03:16:29.641Z,67.30
2018-08-19T03:18:57.161Z,67.20
2018-08-19T03:21:24.765Z,67.10
2018-08-19T03:23:53.561Z,67.00
2018-08-19T03:26:21.103Z,67.00
2018-08-19T03:28:48.781Z,67.20
2018-08-19T03:31:16.315Z,67.60
2018-08-19T03:33:43.869Z,67.80
2018-08-19T03:36:11.374Z,67.80
2018-08-19T03:38:38.921Z,67.60
2018-08-19T03:41:06.481Z,67.60
2018-08-19T03:43:33.983Z,67.60
2018-08-19T03:46:11.996Z,67.80
2018-08-19T03:48:39.510Z,68.00
2018-08-19T03:51:08.132Z,68.00
2018-08-19T03:53:35.672Z,68.10
2018-08-19T03:56:03.290Z,68.10
2018-08-19T03:58:30.761Z,68.20
2018-08-19T04:00:58.288Z,68.60
2018-08-19T04:03:26.244Z,68.50
2018-08-19T04:05:59.393Z,68.50
2018-08-19T04:08:33.082Z,68.40
2018-08-19T04:11:01.315Z,68.20
2018-08-19T04:13:33.798Z,68.10
2018-08-19T04:16:02.401Z,68.10
2018-08-19T04:18:54.544Z,68.10
2018-08-19T04:21:22.100Z,68.40
2018-08-19T04:23:49.678Z,68.80
2018-08-19T04:26:17.197Z,68.80
2018-08-19T04:28:45.205Z,68.70
2018-08-19T04:31:18.338Z,68.60
2018-08-19T04:33:47.163Z,68.70
2018-08-19T04:36:16.057Z,68.80
2018-08-19T04:38:43.704Z,69.10
2018-08-19T04:41:11.695Z,69.20
2018-08-19T04:43:39.287Z,69.30
2018-08-19T04:46:06.888Z,69.40
2018-08-19T04:48:34.371Z,69.40
2018-08-19T04:51:01.903Z,69.60
2018-08-19T04:53:30.786Z,69.60
2018-08-19T04:55:58.392Z,69.50
2018-08-19T04:58:25.938Z,69.50
2018-08-19T05:00:53.494Z,69.30
2018-08-19T05:03:21.024Z,69.20
2018-08-19T05:05:48.529Z,69.30
2018-08-19T05:08:16.179Z,69.30
2018-08-19T05:10:43.616Z,69.40
2018-08-19T05:13:11.998Z,69.80
2018-08-19T05:15:40.427Z,69.90
2018-08-19T05:18:08.218Z,70.40
2018-08-19T05:20:35.795Z,70.40
2018-08-19T05:23:03.368Z,70.60
2018-08-19T05:25:30.936Z,70.80
2018-08-19T05:28:04.207Z,70.50
2018-08-19T05:30:32.767Z,70.50
2018-08-19T05:33:00.873Z,70.30
2018-08-19T05:35:29.280Z,70.30
2018-08-19T05:37:57.165Z,70.40
2018-08-19T05:40:24.692Z,70.40
2018-08-19T05:42:52.324Z,70.20
2018-08-19T05:45:19.851Z,69.90
2018-08-19T05:47:58.633Z,69.70
2018-08-19T05:50:26.159Z,70.10
2018-08-19T05:52:53.705Z,70.30
2018-08-19T05:55:21.259Z,70.10
2018-08-19T05:57:48.793Z,70.00
2018-08-19T06:00:22.146Z,69.80
2018-08-19T06:02:49.931Z,69.60
2018-08-19T06:05:17.529Z,69.60
2018-08-19T06:07:45.132Z,69.10
2018-08-19T06:10:12.658Z,69.30
2018-08-19T06:12:40.233Z,69.90
2018-08-19T06:15:07.861Z,69.20
2018-08-19T06:17:35.451Z,69.00
2018-08-19T06:20:03.139Z,69.10
2018-08-19T06:22:39.003Z,69.50
2018-08-19T06:25:06.638Z,68.70
2018-08-19T06:27:39.902Z,68.90
2018-08-19T06:30:07.521Z,68.10
2018-08-19T06:32:35.096Z,68.20
2018-08-19T06:35:02.930Z,67.60
2018-08-19T06:37:30.357Z,67.50
2018-08-19T06:39:57.937Z,66.80
2018-08-19T06:42:25.497Z,67.40
2018-08-19T06:44:53.602Z,67.70
2018-08-19T06:47:21.177Z,67.60
2018-08-19T06:49:53.747Z,66.80
2018-08-19T06:52:22.070Z,66.00
2018-08-19T06:54:49.740Z,66.30
2018-08-19T06:57:17.318Z,65.20
2018-08-19T06:59:44.955Z,64.60
2018-08-19T07:02:12.589Z,63.90
2018-08-19T07:04:43.274Z,63.20
2018-08-19T07:07:16.511Z,63.40
2018-08-19T07:09:44.149Z,63.30
2018-08-19T07:12:14.304Z,63.30
2018-08-19T07:14:42.281Z,62.50
2018-08-19T07:17:09.934Z,62.00
2018-08-19T07:19:38.104Z,61.90
2018-08-19T07:22:06.971Z,61.40
2018-08-19T07:24:35.645Z,61.40
2018-08-19T07:27:03.311Z,60.80
2018-08-19T07:29:31.547Z,59.80
2018-08-19T07:31:59.166Z,60.00
2018-08-19T07:34:26.793Z,59.90
2018-08-19T07:36:55.541Z,59.00
2018-08-19T07:39:23.231Z,58.10
2018-08-19T07:41:50.876Z,58.30
2018-08-19T07:44:18.525Z,59.00
2018-08-19T07:46:46.143Z,57.90
2018-08-19T07:49:13.681Z,57.50
2018-08-19T07:51:41.468Z,58.30
2018-08-19T07:54:09.048Z,58.40
2018-08-19T07:56:37.012Z,58.50
2018-08-19T07:59:14.309Z,58.50
2018-08-19T08:01:41.919Z,57.00
2018-08-19T08:04:09.914Z,56.40
2018-08-19T08:06:37.723Z,56.70
2018-08-19T08:09:08.800Z,56.10
2018-08-19T08:11:36.540Z,55.90
2018-08-19T08:14:04.557Z,56.00
2018-08-19T08:16:41.578Z,54.70
2018-08-19T08:19:09.436Z,55.70
2018-08-19T08:21:37.168Z,55.80
2018-08-19T08:24:05.387Z,55.40
2018-08-19T08:26:35.622Z,55.90
2018-08-19T08:29:04.812Z,54.90
2018-08-19T08:31:36.104Z,54.80
2018-08-19T08:34:03.881Z,54.20
2018-08-19T08:36:31.541Z,54.10
2018-08-19T08:38:59.224Z,53.60
2018-08-19T08:41:26.865Z,53.80
2018-08-19T08:43:54.521Z,54.10
2018-08-19T08:46:22.087Z,53.60
2018-08-19T08:48:49.730Z,54.50
2018-08-19T08:51:17.427Z,53.00
2018-08-19T08:53:45.457Z,53.50
2018-08-19T08:56:13.615Z,53.00
2018-08-19T08:58:41.315Z,51.60
2018-08-19T09:01:08.919Z,53.30
2018-08-19T09:03:36.456Z,53.30
2018-08-19T09:06:08.882Z,52.40
2018-08-19T09:08:36.425Z,53.10
2018-08-19T09:11:04.454Z,53.00
2018-08-19T09:13:32.337Z,52.50
2018-08-19T09:15:59.965Z,52.60
2018-08-19T09:18:27.555Z,52.80
2018-08-19T09:20:55.176Z,52.90
2018-08-19T09:23:23.009Z,52.60
2018-08-19T09:25:50.437Z,51.90
2018-08-19T09:28:18.073Z,52.10
2018-08-19T09:30:45.741Z,51.70
2018-08-19T09:33:13.629Z,52.60
2018-08-19T09:35:42.394Z,53.00
2018-08-19T09:38:16.635Z,52.40
2018-08-19T09:40:44.733Z,51.60
2018-08-19T09:43:12.611Z,51.60
2018-08-19T09:45:40.460Z,51.80
2018-08-19T09:48:08.461Z,52.20
2018-08-19T09:50:36.939Z,52.50
2018-08-19T09:53:04.848Z,52.80
2018-08-19T09:55:38.114Z,52.60
2018-08-19T09:58:10.487Z,51.80
2018-08-19T10:00:43.736Z,52.10
2018-08-19T10:03:11.405Z,51.80
2018-08-19T10:05:39.000Z,51.30
2018-08-19T10:08:06.645Z,51.10
2018-08-19T10:10:36.179Z,50.80
2018-08-19T10:13:04.238Z,50.00
2018-08-19T10:15:32.299Z,50.00
2018-08-19T10:17:59.962Z,49.90
2018-08-19T10:20:27.662Z,50.80
2018-08-19T10:22:56.264Z,48.70
2018-08-19T10:25:24.008Z,49.30
2018-08-19T10:27:52.986Z,48.60
2018-08-19T10:30:20.898Z,49.20
2018-08-19T10:33:01.535Z,48.80
2018-08-19T10:35:29.909Z,48.30
2018-08-19T10:37:57.962Z,47.20
2018-08-19T10:40:25.645Z,47.20
2018-08-19T10:43:09.986Z,47.00
2018-08-19T10:45:39.998Z,45.60
2018-08-19T10:48:09.256Z,44.80
2018-08-19T10:50:37.185Z,42.10
2018-08-19T10:53:07.824Z,38.10
2018-08-19T10:55:35.405Z,34.00
2018-08-19T10:58:03.019Z,31.30
2018-08-19T11:00:31.732Z,28.50
2018-08-19T11:03:05.082Z,26.80
2018-08-19T11:05:34.853Z,24.70
2018-08-19T11:08:02.487Z,23.90
2018-08-19T11:10:30.097Z,23.80
2018-08-19T11:12:58.315Z,24.10
2018-08-19T11:15:34.704Z,25.60
2018-08-19T11:18:52.129Z,27.80
2018-08-19T11:21:38.140Z,30.50
2018-08-19T11:24:10.853Z,34.00
2018-08-19T11:26:38.478Z,33.00
2018-08-19T11:29:06.082Z,31.90
2018-08-19T11:31:35.057Z,28.80
2018-08-19T11:34:04.137Z,26.10
2018-08-19T11:36:37.927Z,24.50
2018-08-19T11:39:08.391Z,22.50
2018-08-19T11:41:36.029Z,21.70
2018-08-19T11:44:07.329Z,22.70
2018-08-19T11:46:35.111Z,25.20
2018-08-19T11:49:23.726Z,25.80
2018-08-19T11:52:09.241Z,24.40
2018-08-19T11:54:36.877Z,22.70
2018-08-19T11:57:10.850Z,21.00
2018-08-19T11:59:43.637Z,19.50
2018-08-19T12:02:13.831Z,19.10
2018-08-19T12:04:41.489Z,18.40
2018-08-19T12:07:09.151Z,17.30
2018-08-19T12:09:37.258Z,17.20
2018-08-19T12:12:04.892Z,17.80
2018-08-19T12:14:33.410Z,17.20
2018-08-19T12:17:01.802Z,16.50
2018-08-19T12:19:31.306Z,16.70
2018-08-19T12:22:02.679Z,16.60
2018-08-19T12:24:33.424Z,17.50
2018-08-19T12:27:02.235Z,19.10
2018-08-19T12:29:31.815Z,19.10
2018-08-19T12:32:12.168Z,19.20
2018-08-19T12:34:43.409Z,18.10
2018-08-19T12:37:12.326Z,17.90
2018-08-19T12:39:39.976Z,17.70
2018-08-19T12:42:07.701Z,17.60
2018-08-19T12:44:35.451Z,17.30
2018-08-19T12:47:22.989Z,17.80
2018-08-19T12:49:52.110Z,17.30
2018-08-19T12:52:21.802Z,16.70
2018-08-19T12:54:55.230Z,17.00
2018-08-19T12:57:23.322Z,17.20
2018-08-19T12:59:51.195Z,18.30
2018-08-19T13:02:23.464Z,19.20
2018-08-19T13:04:51.254Z,19.80
2018-08-19T13:07:19.016Z,22.00
2018-08-19T13:09:49.296Z,23.70
2018-08-19T13:12:17.070Z,24.60
2018-08-19T13:14:44.872Z,23.80
2018-08-19T13:17:12.777Z,22.70
2018-08-19T13:19:40.525Z,21.50
2018-08-19T13:22:08.240Z,21.00
2018-08-19T13:24:37.163Z,21.20
2018-08-19T13:27:05.355Z,21.30
2018-08-19T13:29:33.409Z,21.30
2018-08-19T13:32:01.053Z,22.00
2018-08-19T13:34:28.864Z,20.60
2018-08-19T13:36:56.964Z,22.40
2018-08-19T13:39:25.078Z,22.80
2018-08-19T13:41:52.806Z,23.20
2018-08-19T13:44:20.560Z,23.70
2018-08-19T13:46:48.169Z,25.30
2018-08-19T13:49:19.941Z,26.40
2018-08-19T13:51:47.632Z,27.70
2018-08-19T13:54:15.269Z,28.30
2018-08-19T13:56:43.717Z,27.80
2018-08-19T13:59:11.381Z,29.70
2018-08-19T14:01:38.951Z,30.50
2018-08-19T14:04:07.121Z,31.30
2018-08-19T14:06:34.812Z,33.00
2018-08-19T14:09:02.669Z,33.20
2018-08-19T14:11:30.349Z,33.60
2018-08-19T14:13:57.998Z,33.50
2018-08-19T14:16:25.628Z,32.70
2018-08-19T14:18:53.348Z,32.10
2018-08-19T14:21:21.043Z,32.90
2018-08-19T14:23:48.716Z,32.20
2018-08-19T14:26:16.320Z,32.90
2018-08-19T14:28:43.934Z,32.60
2018-08-19T14:31:11.490Z,32.90
2018-08-19T14:33:39.012Z,35.00
2018-08-19T14:36:07.005Z,35.40
2018-08-19T14:38:34.593Z,35.20
2018-08-19T14:41:02.157Z,35.80
2018-08-19T14:43:29.767Z,36.90
2018-08-19T14:45:57.360Z,36.30
2018-08-19T14:48:25.019Z,36.10
2018-08-19T14:50:52.618Z,35.70
2018-08-19T14:53:20.229Z,35.90
2018-08-19T14:55:47.996Z,37.00
2018-08-19T14:58:15.541Z,35.40
2018-08-19T15:00:43.146Z,34.50
2018-08-19T15:03:10.761Z,35.00
2018-08-19T15:05:38.442Z,36.10
2018-08-19T15:08:11.689Z,36.00
2018-08-19T15:10:39.809Z,34.70
2018-08-19T15:13:07.394Z,35.60
2018-08-19T15:15:35.291Z,35.80
2018-08-19T15:18:02.937Z,36.60
2018-08-19T15:20:33.644Z,37.30
2018-08-19T15:23:13.192Z,37.10
2018-08-19T15:25:40.782Z,37.30
2018-08-19T15:28:08.391Z,35.70
2018-08-19T15:30:39.276Z,37.60
2018-08-19T15:33:07.203Z,37.10
2018-08-19T15:35:34.671Z,36.60
2018-08-19T15:38:02.266Z,37.30
2018-08-19T15:40:43.423Z,36.80
2018-08-19T15:43:12.232Z,37.00
2018-08-19T15:45:40.284Z,37.10
2018-08-19T15:48:08.266Z,37.30
2018-08-19T15:50:35.913Z,37.60
2018-08-19T15:53:06.178Z,36.70
2018-08-19T15:55:34.104Z,36.10
2018-08-19T15:58:02.991Z,37.00
2018-08-19T16:00:39.888Z,36.50
2018-08-19T16:03:08.596Z,37.70
2018-08-19T16:05:36.168Z,36.20
2018-08-19T16:08:04.470Z,35.90
2018-08-19T16:10:32.110Z,35.80
2018-08-19T16:13:04.100Z,36.60
2018-08-19T16:15:31.726Z,36.80
2018-08-19T16:17:59.360Z,36.60
2018-08-19T16:20:27.096Z,37.10
2018-08-19T16:22:54.872Z,37.10
2018-08-19T16:25:22.609Z,37.20
2018-08-19T16:27:50.858Z,37.70
2018-08-19T16:30:18.907Z,37.80
2018-08-19T16:32:46.513Z,39.40
2018-08-19T16:35:14.213Z,39.00
2018-08-19T16:37:42.271Z,38.40
2018-08-19T16:40:12.383Z,39.10
2018-08-19T16:42:41.209Z,39.40
2018-08-19T16:45:09.924Z,39.10
2018-08-19T16:47:37.632Z,40.00
2018-08-19T16:50:07.577Z,39.80
2018-08-19T16:52:35.434Z,39.10
2018-08-19T16:55:03.522Z,40.10
2018-08-19T16:57:32.187Z,40.50
2018-08-19T17:00:00.076Z,41.20
2018-08-19T17:02:27.806Z,42.00
2018-08-19T17:04:55.586Z,40.90
2018-08-19T17:07:23.376Z,42.90
2018-08-19T17:09:51.172Z,41.60
2018-08-19T17:12:19.004Z,42.10
2018-08-19T17:14:46.749Z,42.90
2018-08-19T17:17:14.349Z,42.50
2018-08-19T17:19:42.043Z,42.20
2018-08-19T17:22:09.721Z,42.60
2018-08-19T17:24:37.397Z,43.10
2018-08-19T17:27:11.980Z,43.80
2018-08-19T17:29:39.714Z,43.50
2018-08-19T17:32:07.645Z,44.30
2018-08-19T17:34:38.940Z,45.00
2018-08-19T17:37:07.786Z,44.90
2018-08-19T17:39:35.546Z,44.30
2018-08-19T17:42:03.219Z,44.90
2018-08-19T17:44:30.850Z,45.70
2018-08-19T17:46:58.487Z,46.40
2018-08-19T17:49:27.143Z,47.90
2018-08-19T17:51:56.077Z,48.70
2018-08-19T17:54:32.566Z,49.10
2018-08-19T17:57:01.381Z,49.10
2018-08-19T17:59:29.608Z,51.80
2018-08-19T18:01:57.284Z,51.60
2018-08-19T18:04:32.190Z,51.20
2018-08-19T18:07:00.094Z,50.80
2018-08-19T18:09:27.744Z,50.30
2018-08-19T18:11:59.941Z,50.00
2018-08-19T18:14:29.066Z,49.40
2018-08-19T18:16:56.759Z,49.70
2018-08-19T18:19:24.444Z,50.20
2018-08-19T18:21:52.169Z,50.00
2018-08-19T18:24:20.281Z,50.20
2018-08-19T18:26:47.950Z,49.70
2018-08-19T18:29:16.824Z,49.50
2018-08-19T18:31:48.326Z,50.40
2018-08-19T18:34:16.204Z,50.20
2018-08-19T18:36:44.047Z,50.80
2018-08-19T18:39:11.865Z,50.10
2018-08-19T18:41:42.744Z,51.00
2018-08-19T18:44:11.353Z,51.60
2018-08-19T18:46:39.007Z,52.00
2018-08-19T18:49:13.603Z,51.70
2018-08-19T18:51:44.235Z,51.70
2018-08-19T18:54:18.003Z,51.70
2018-08-19T18:56:45.775Z,51.70
2018-08-19T18:59:13.623Z,52.30
2018-08-19T19:01:41.992Z,52.70
2018-08-19T19:04:09.907Z,53.30
2018-08-19T19:06:37.552Z,53.70
2018-08-19T19:09:06.336Z,53.40
2018-08-19T19:11:34.114Z,53.10
2018-08-19T19:14:06.459Z,53.80
2018-08-19T19:16:37.477Z,53.40
2018-08-19T19:19:05.588Z,53.90
2018-08-19T19:21:33.546Z,54.10
2018-08-19T19:24:01.757Z,54.10
2018-08-19T19:26:34.993Z,54.40
2018-08-19T19:29:07.521Z,53.90
2018-08-19T19:31:35.406Z,54.20
2018-08-19T19:34:11.680Z,53.80
2018-08-19T19:36:39.855Z,53.90
2018-08-19T19:39:07.613Z,53.80
2018-08-19T19:41:35.540Z,54.10
2018-08-19T19:44:23.697Z,54.40
2018-08-19T19:46:52.527Z,54.40
2018-08-19T19:49:20.696Z,54.70
2018-08-19T19:51:54.151Z,54.80
2018-08-19T19:54:22.922Z,54.80
2018-08-19T19:56:50.805Z,54.60
2018-08-19T19:59:18.777Z,55.60
2018-08-19T20:01:47.017Z,54.70
2018-08-19T20:04:14.673Z,55.20
2018-08-19T20:06:42.714Z,55.40
2018-08-19T20:09:10.899Z,56.10
2018-08-19T20:11:38.870Z,56.20
2018-08-19T20:14:06.962Z,56.20
2018-08-19T20:16:34.818Z,56.00
2018-08-19T20:19:02.440Z,56.00
2018-08-19T20:21:33.664Z,55.90
2018-08-19T20:24:01.362Z,56.80
2018-08-19T20:26:28.998Z,56.40
2018-08-19T20:28:58.152Z,56.80
2018-08-19T20:31:26.507Z,57.00
2018-08-19T20:33:54.289Z,57.10
2018-08-19T20:36:22.056Z,57.20
2018-08-19T20:38:49.769Z,56.90
2018-08-19T20:41:17.462Z,56.90
2018-08-19T20:43:45.130Z,56.80
2018-08-19T20:46:12.993Z,56.80
2018-08-19T20:48:40.682Z,57.00
2018-08-19T20:51:08.479Z,56.80
2018-08-19T20:53:36.141Z,57.50
2018-08-19T20:56:03.888Z,57.20
2018-08-19T20:58:31.532Z,57.20
2018-08-19T21:00:59.318Z,57.30
2018-08-19T21:03:26.986Z,57.10
2018-08-19T21:05:54.580Z,57.40
2018-08-19T21:08:22.378Z,57.60
2018-08-19T21:10:50.191Z,57.50
2018-08-19T21:13:19.044Z,57.80
2018-08-19T21:15:48.957Z,57.40
2018-08-19T21:18:16.663Z,57.30
2018-08-19T21:20:44.296Z,57.30
2018-08-19T21:23:11.902Z,57.40
2018-08-19T21:25:47.145Z,57.90
2018-08-19T21:28:15.239Z,58.00
2018-08-19T21:30:42.823Z,58.70
2018-08-19T21:33:10.400Z,58.30
2018-08-19T21:35:43.560Z,58.50
2018-08-19T21:38:11.296Z,58.20
2018-08-19T21:40:38.987Z,59.30
2018-08-19T21:43:07.208Z,59.00
2018-08-19T21:45:35.421Z,59.00
2018-08-19T21:48:03.081Z,58.80
2018-08-19T21:50:30.703Z,59.00
2018-08-19T21:53:03.266Z,59.10
2018-08-19T21:55:34.072Z,59.40
2018-08-19T21:58:02.184Z,58.70
2018-08-19T22:00:31.793Z,59.00
2018-08-19T22:03:05.171Z,58.80
2018-08-19T22:05:33.948Z,58.70
2018-08-19T22:08:02.728Z,58.70
2018-08-19T22:10:30.585Z,58.80
2018-08-19T22:12:58.258Z,59.00
2018-08-19T22:15:31.564Z,58.80
2018-08-19T22:17:59.868Z,59.50
2018-08-19T22:20:27.502Z,60.40
2018-08-19T22:22:55.078Z,60.20
2018-08-19T22:25:23.045Z,60.80
2018-08-19T22:27:50.623Z,60.50
2018-08-19T22:30:18.188Z,60.70
2018-08-19T22:32:45.743Z,60.80
2018-08-19T22:35:13.323Z,60.80
2018-08-19T22:37:40.970Z,60.70
2018-08-19T22:40:08.517Z,60.50
2018-08-19T22:42:36.081Z,60.40
2018-08-19T22:45:03.928Z,59.70
2018-08-19T22:47:31.568Z,60.50
2018-08-19T22:49:59.811Z,60.10
2018-08-19T22:52:27.394Z,60.70
2018-08-19T22:54:56.241Z,60.90
2018-08-19T22:57:24.253Z,61.00
2018-08-19T22:59:51.835Z,61.30
2018-08-19T23:02:19.452Z,60.50
2018-08-19T23:04:47.218Z,60.50
2018-08-19T23:07:14.811Z,60.80
2018-08-19T23:09:42.308Z,60.50
2018-08-19T23:12:09.903Z,61.10
2018-08-19T23:14:48.695Z,61.30
2018-08-19T23:17:16.288Z,61.20
2018-08-19T23:19:43.841Z,61.00
2018-08-19T23:22:11.320Z,61.20
2018-08-19T23:24:38.856Z,61.70
2018-08-19T23:27:06.379Z,61.40
2018-08-19T23:29:33.889Z,61.70
2018-08-19T23:32:01.408Z,62.20
2018-08-19T23:34:28.893Z,62.00
2018-08-19T23:36:56.374Z,62.40
2018-08-19T23:39:23.982Z,62.30
2018-08-19T23:41:51.488Z,62.40
2018-08-19T23:44:18.984Z,62.60
2018-08-19T23:46:46.519Z,62.30
2018-08-19T23:49:14.055Z,61.90
2018-08-19T23:51:41.588Z,62.30
2018-08-19T23:54:09.118Z,62.50
2018-08-19T23:56:36.636Z,62.60
2018-08-19T23:59:04.290Z,62.50
